International Virtual Aviation Organisation

Russian Federation and Kazakhstan MCD

 

Карточка аэропорта UWKS

Внимание!
Информация на этой странице в стадии наполнения.
Если вы не увидели какой-то информации, или заметили неточность - пожалуйста сообщите нам!
Спасибо!
Команда RU-STAFF
Название аэропортаЧебоксары
Название аэропорта (англ.)Cheboksary
Превышение558 ft. (170.1 m.)
Координаты56°5.4000000000002', 47°20.832'
Высота перехода800m
Эшелон переходаQFE>=724mm:FL050; QFE<724:FL060
Коды ответчика1000
Зона ОрВДСамара РПИ (UWWW)
Данные METARUWKS 080200Z 21007MPS 9999 BKN010 M01/M02 Q1008 R24/820240 TEMPO BKN007 RMK QFE742
Проноз погоды (TAF)NODATA
NOTAMshow/hide NOTAM
AWOS   TABLE

Информация о ВПП

ВПП Длина ВПП (м.) Покрытие Курс ВПП Частота ILS
062812Асфальтобетон59110.3
242812Асфальтобетон239108.3

Диспетчерские позиции




Спутниковое изображение